sensor_id;sensor_type;location;lat;lon;timestamp;temperature;humidity
14349;DHT22;7258;50.376;8.742;2022-10-16T00:01:33;14.40;99.90
14349;DHT22;7258;50.376;8.742;2022-10-16T00:03:37;14.40;99.90
14349;DHT22;7258;50.376;8.742;2022-10-16T00:05:41;14.30;99.90
14349;DHT22;7258;50.376;8.742;2022-10-16T00:07:45;14.30;99.90
14349;DHT22;7258;50.376;8.742;2022-10-16T00:09:48;14.30;99.90
14349;DHT22;7258;50.376;8.742;2022-10-16T00:11:51;14.20;99.90
14349;DHT22;7258;50.376;8.742;2022-10-16T00:13:59;14.20;99.90
14349;DHT22;7258;50.376;8.742;2022-10-16T00:16:03;14.20;99.90
14349;DHT22;7258;50.376;8.742;2022-10-16T00:18:06;14.20;99.90
14349;DHT22;7258;50.376;8.742;2022-10-16T00:20:09;14.10;99.90
14349;DHT22;7258;50.376;8.742;2022-10-16T00:22:12;14.10;99.90
14349;DHT22;7258;50.376;8.742;2022-10-16T00:24:17;14.10;99.90
14349;DHT22;7258;50.376;8.742;2022-10-16T00:26:20;14.10;99.90
14349;DHT22;7258;50.376;8.742;2022-10-16T00:28:23;14.10;99.90
14349;DHT22;7258;50.376;8.742;2022-10-16T00:30:27;14.10;99.90
14349;DHT22;7258;50.376;8.742;2022-10-16T00:32:30;14.10;99.90
14349;DHT22;7258;50.376;8.742;2022-10-16T00:34:33;14.10;99.90
14349;DHT22;7258;50.376;8.742;2022-10-16T00:36:36;14.10;99.90
14349;DHT22;7258;50.376;8.742;2022-10-16T00:38:39;14.10;99.90
14349;DHT22;7258;50.376;8.742;2022-10-16T00:40:43;14.10;99.90
14349;DHT22;7258;50.376;8.742;2022-10-16T00:42:45;14.10;99.90
14349;DHT22;7258;50.376;8.742;2022-10-16T00:44:50;14.00;99.90
14349;DHT22;7258;50.376;8.742;2022-10-16T00:46:54;14.10;99.90
14349;DHT22;7258;50.376;8.742;2022-10-16T00:49:00;14.00;99.90
14349;DHT22;7258;50.376;8.742;2022-10-16T00:51:04;14.00;99.90
14349;DHT22;7258;50.376;8.742;2022-10-16T00:53:08;14.00;99.90
14349;DHT22;7258;50.376;8.742;2022-10-16T00:55:11;14.00;99.90
14349;DHT22;7258;50.376;8.742;2022-10-16T00:57:15;14.00;99.90
14349;DHT22;7258;50.376;8.742;2022-10-16T00:59:20;14.00;99.90
14349;DHT22;7258;50.376;8.742;2022-10-16T01:01:23;14.00;99.90
14349;DHT22;7258;50.376;8.742;2022-10-16T01:03:28;14.00;99.90
14349;DHT22;7258;50.376;8.742;2022-10-16T01:05:35;13.90;99.90
14349;DHT22;7258;50.376;8.742;2022-10-16T01:07:45;13.90;99.90
14349;DHT22;7258;50.376;8.742;2022-10-16T01:10:02;13.90;99.90
14349;DHT22;7258;50.376;8.742;2022-10-16T01:12:10;13.90;99.90
14349;DHT22;7258;50.376;8.742;2022-10-16T01:14:21;13.90;99.90
14349;DHT22;7258;50.376;8.742;2022-10-16T01:16:30;13.90;99.90
14349;DHT22;7258;50.376;8.742;2022-10-16T01:18:39;13.90;99.90
14349;DHT22;7258;50.376;8.742;2022-10-16T01:20:49;13.90;99.90
14349;DHT22;7258;50.376;8.742;2022-10-16T01:23:04;13.90;99.90
14349;DHT22;7258;50.376;8.742;2022-10-16T01:25:14;13.90;99.90
14349;DHT22;7258;50.376;8.742;2022-10-16T01:27:22;13.90;99.90
14349;DHT22;7258;50.376;8.742;2022-10-16T01:29:30;13.90;99.90
14349;DHT22;7258;50.376;8.742;2022-10-16T01:31:39;13.90;99.90
14349;DHT22;7258;50.376;8.742;2022-10-16T01:33:45;13.90;99.90
14349;DHT22;7258;50.376;8.742;2022-10-16T01:35:53;14.00;99.90
14349;DHT22;7258;50.376;8.742;2022-10-16T01:38:00;14.00;99.90
14349;DHT22;7258;50.376;8.742;2022-10-16T01:40:07;14.00;99.90
14349;DHT22;7258;50.376;8.742;2022-10-16T01:42:15;14.00;99.90
14349;DHT22;7258;50.376;8.742;2022-10-16T01:44:22;14.10;99.90
14349;DHT22;7258;50.376;8.742;2022-10-16T01:46:28;14.10;99.90
14349;DHT22;7258;50.376;8.742;2022-10-16T01:48:34;14.10;99.90
14349;DHT22;7258;50.376;8.742;2022-10-16T01:50:39;14.20;99.90
14349;DHT22;7258;50.376;8.742;2022-10-16T01:52:46;14.20;99.90
14349;DHT22;7258;50.376;8.742;2022-10-16T01:54:53;14.30;99.90
14349;DHT22;7258;50.376;8.742;2022-10-16T01:56:56;14.30;99.90
14349;DHT22;7258;50.376;8.742;2022-10-16T01:59:04;14.30;99.90
14349;DHT22;7258;50.376;8.742;2022-10-16T02:01:11;14.40;99.90
14349;DHT22;7258;50.376;8.742;2022-10-16T02:03:20;14.40;99.90
14349;DHT22;7258;50.376;8.742;2022-10-16T02:05:28;14.40;99.90
14349;DHT22;7258;50.376;8.742;2022-10-16T02:07:32;14.40;99.90
14349;DHT22;7258;50.376;8.742;2022-10-16T02:09:35;14.40;99.90
14349;DHT22;7258;50.376;8.742;2022-10-16T02:11:38;14.50;99.90
14349;DHT22;7258;50.376;8.742;2022-10-16T02:13:44;14.50;99.90
14349;DHT22;7258;50.376;8.742;2022-10-16T02:15:48;14.50;99.90
14349;DHT22;7258;50.376;8.742;2022-10-16T02:17:52;14.50;99.90
14349;DHT22;7258;50.376;8.742;2022-10-16T02:19:56;14.60;99.90
14349;DHT22;7258;50.376;8.742;2022-10-16T02:22:04;14.60;99.90
14349;DHT22;7258;50.376;8.742;2022-10-16T02:24:11;14.60;99.90
14349;DHT22;7258;50.376;8.742;2022-10-16T02:26:26;14.60;99.90
14349;DHT22;7258;50.376;8.742;2022-10-16T02:28:35;14.60;99.90
14349;DHT22;7258;50.376;8.742;2022-10-16T02:30:43;14.60;99.90
14349;DHT22;7258;50.376;8.742;2022-10-16T02:32:49;14.60;99.90
14349;DHT22;7258;50.376;8.742;2022-10-16T02:34:54;14.60;99.90
14349;DHT22;7258;50.376;8.742;2022-10-16T02:36:59;14.60;99.90
14349;DHT22;7258;50.376;8.742;2022-10-16T02:39:03;14.60;99.90
14349;DHT22;7258;50.376;8.742;2022-10-16T02:41:07;14.60;99.90
14349;DHT22;7258;50.376;8.742;2022-10-16T02:43:10;14.60;99.90
14349;DHT22;7258;50.376;8.742;2022-10-16T02:45:13;14.60;99.90
14349;DHT22;7258;50.376;8.742;2022-10-16T02:47:16;14.60;99.90
14349;DHT22;7258;50.376;8.742;2022-10-16T02:49:19;14.60;99.90
14349;DHT22;7258;50.376;8.742;2022-10-16T02:51:23;14.70;99.90
14349;DHT22;7258;50.376;8.742;2022-10-16T02:53:26;14.70;99.90
14349;DHT22;7258;50.376;8.742;2022-10-16T02:55:28;14.70;99.90
14349;DHT22;7258;50.376;8.742;2022-10-16T02:57:31;14.70;99.90
14349;DHT22;7258;50.376;8.742;2022-10-16T02:59:34;14.70;99.90
14349;DHT22;7258;50.376;8.742;2022-10-16T03:01:37;14.70;99.90
14349;DHT22;7258;50.376;8.742;2022-10-16T03:03:40;14.80;99.90
14349;DHT22;7258;50.376;8.742;2022-10-16T03:05:43;14.80;99.90
14349;DHT22;7258;50.376;8.742;2022-10-16T03:07:48;14.80;99.90
14349;DHT22;7258;50.376;8.742;2022-10-16T03:09:51;14.80;99.90
14349;DHT22;7258;50.376;8.742;2022-10-16T03:11:53;14.70;99.90
14349;DHT22;7258;50.376;8.742;2022-10-16T03:13:56;14.80;99.90
14349;DHT22;7258;50.376;8.742;2022-10-16T03:15:59;14.70;99.90
14349;DHT22;7258;50.376;8.742;2022-10-16T03:18:02;14.70;99.90
14349;DHT22;7258;50.376;8.742;2022-10-16T03:20:05;14.70;99.90
14349;DHT22;7258;50.376;8.742;2022-10-16T03:22:08;14.70;99.90
14349;DHT22;7258;50.376;8.742;2022-10-16T03:24:12;14.70;99.90
14349;DHT22;7258;50.376;8.742;2022-10-16T03:26:15;14.70;99.90
14349;DHT22;7258;50.376;8.742;2022-10-16T03:28:18;14.70;99.90
14349;DHT22;7258;50.376;8.742;2022-10-16T03:30:21;14.70;99.90
14349;DHT22;7258;50.376;8.742;2022-10-16T03:32:24;14.70;99.90
14349;DHT22;7258;50.376;8.742;2022-10-16T03:34:27;14.70;99.90
14349;DHT22;7258;50.376;8.742;2022-10-16T03:36:30;14.60;99.90
14349;DHT22;7258;50.376;8.742;2022-10-16T03:38:33;14.50;99.90
14349;DHT22;7258;50.376;8.742;2022-10-16T03:40:37;14.20;99.90
14349;DHT22;7258;50.376;8.742;2022-10-16T03:42:42;14.20;99.90
14349;DHT22;7258;50.376;8.742;2022-10-16T03:44:45;14.10;99.90
14349;DHT22;7258;50.376;8.742;2022-10-16T03:46:47;14.00;99.90
14349;DHT22;7258;50.376;8.742;2022-10-16T03:48:50;13.90;99.90
14349;DHT22;7258;50.376;8.742;2022-10-16T03:50:53;13.80;99.90
14349;DHT22;7258;50.376;8.742;2022-10-16T03:52:56;13.80;99.90
14349;DHT22;7258;50.376;8.742;2022-10-16T03:54:59;13.70;99.90
14349;DHT22;7258;50.376;8.742;2022-10-16T03:57:03;13.70;99.90
14349;DHT22;7258;50.376;8.742;2022-10-16T03:59:06;13.70;99.90
14349;DHT22;7258;50.376;8.742;2022-10-16T04:01:09;13.70;99.90
14349;DHT22;7258;50.376;8.742;2022-10-16T04:03:12;13.60;99.90
14349;DHT22;7258;50.376;8.742;2022-10-16T04:05:15;13.60;99.90
14349;DHT22;7258;50.376;8.742;2022-10-16T04:07:17;13.60;99.90
14349;DHT22;7258;50.376;8.742;2022-10-16T04:09:20;13.70;99.90
14349;DHT22;7258;50.376;8.742;2022-10-16T04:11:23;13.70;99.90
14349;DHT22;7258;50.376;8.742;2022-10-16T04:13:27;13.70;99.90
14349;DHT22;7258;50.376;8.742;2022-10-16T04:15:30;13.70;99.90
14349;DHT22;7258;50.376;8.742;2022-10-16T04:17:32;13.80;99.90
14349;DHT22;7258;50.376;8.742;2022-10-16T04:19:35;13.80;99.90
14349;DHT22;7258;50.376;8.742;2022-10-16T04:21:38;13.80;99.90
14349;DHT22;7258;50.376;8.742;2022-10-16T04:23:41;13.80;99.90
14349;DHT22;7258;50.376;8.742;2022-10-16T04:25:44;13.90;99.90
14349;DHT22;7258;50.376;8.742;2022-10-16T04:27:47;13.90;99.90
14349;DHT22;7258;50.376;8.742;2022-10-16T04:29:51;13.90;99.90
14349;DHT22;7258;50.376;8.742;2022-10-16T04:31:54;13.90;99.90
14349;DHT22;7258;50.376;8.742;2022-10-16T04:33:57;14.00;99.90
14349;DHT22;7258;50.376;8.742;2022-10-16T04:36:02;14.00;99.90
14349;DHT22;7258;50.376;8.742;2022-10-16T04:38:05;14.00;99.90
14349;DHT22;7258;50.376;8.742;2022-10-16T04:40:08;14.00;99.90
14349;DHT22;7258;50.376;8.742;2022-10-16T04:42:11;14.10;99.90
14349;DHT22;7258;50.376;8.742;2022-10-16T04:44:14;14.10;99.90
14349;DHT22;7258;50.376;8.742;2022-10-16T04:46:18;14.10;99.90
14349;DHT22;7258;50.376;8.742;2022-10-16T04:48:20;14.10;99.90
14349;DHT22;7258;50.376;8.742;2022-10-16T04:50:23;14.10;99.90
14349;DHT22;7258;50.376;8.742;2022-10-16T04:52:26;14.20;99.90
14349;DHT22;7258;50.376;8.742;2022-10-16T04:54:29;14.20;99.90
14349;DHT22;7258;50.376;8.742;2022-10-16T04:56:32;14.30;99.90
14349;DHT22;7258;50.376;8.742;2022-10-16T04:58:41;14.30;99.90
14349;DHT22;7258;50.376;8.742;2022-10-16T05:00:44;14.40;99.90
14349;DHT22;7258;50.376;8.742;2022-10-16T05:02:49;14.40;99.90
14349;DHT22;7258;50.376;8.742;2022-10-16T05:04:52;14.40;99.90
14349;DHT22;7258;50.376;8.742;2022-10-16T05:06:55;14.40;99.90
14349;DHT22;7258;50.376;8.742;2022-10-16T05:08:58;14.40;99.90
14349;DHT22;7258;50.376;8.742;2022-10-16T05:11:00;14.40;99.90
14349;DHT22;7258;50.376;8.742;2022-10-16T05:13:03;14.40;99.90
14349;DHT22;7258;50.376;8.742;2022-10-16T05:15:07;14.50;99.90
14349;DHT22;7258;50.376;8.742;2022-10-16T05:17:09;14.40;99.90
14349;DHT22;7258;50.376;8.742;2022-10-16T05:19:14;14.40;99.90
14349;DHT22;7258;50.376;8.742;2022-10-16T05:21:28;14.40;99.90
14349;DHT22;7258;50.376;8.742;2022-10-16T05:23:31;14.40;99.90
14349;DHT22;7258;50.376;8.742;2022-10-16T05:25:33;14.40;99.90
14349;DHT22;7258;50.376;8.742;2022-10-16T05:27:36;14.40;99.90
14349;DHT22;7258;50.376;8.742;2022-10-16T05:29:39;14.40;99.90
14349;DHT22;7258;50.376;8.742;2022-10-16T05:31:42;14.40;99.90
14349;DHT22;7258;50.376;8.742;2022-10-16T05:33:44;14.40;99.90
14349;DHT22;7258;50.376;8.742;2022-10-16T05:35:49;14.50;99.90
14349;DHT22;7258;50.376;8.742;2022-10-16T05:37:52;14.40;99.90
14349;DHT22;7258;50.376;8.742;2022-10-16T05:39:55;14.40;99.90
14349;DHT22;7258;50.376;8.742;2022-10-16T05:41:58;14.40;99.90
14349;DHT22;7258;50.376;8.742;2022-10-16T05:44:04;14.40;99.90
14349;DHT22;7258;50.376;8.742;2022-10-16T05:46:06;14.40;99.90
14349;DHT22;7258;50.376;8.742;2022-10-16T05:48:09;14.50;99.90
14349;DHT22;7258;50.376;8.742;2022-10-16T05:50:12;14.50;99.90
14349;DHT22;7258;50.376;8.742;2022-10-16T05:52:17;14.40;99.90
14349;DHT22;7258;50.376;8.742;2022-10-16T05:54:19;14.40;99.90
14349;DHT22;7258;50.376;8.742;2022-10-16T05:56:23;14.40;99.90
14349;DHT22;7258;50.376;8.742;2022-10-16T05:58:29;14.50;99.90
14349;DHT22;7258;50.376;8.742;2022-10-16T06:00:32;14.40;99.90
14349;DHT22;7258;50.376;8.742;2022-10-16T06:02:35;14.40;99.90
14349;DHT22;7258;50.376;8.742;2022-10-16T06:04:38;14.50;99.90
14349;DHT22;7258;50.376;8.742;2022-10-16T06:06:41;14.50;99.90
14349;DHT22;7258;50.376;8.742;2022-10-16T06:08:46;14.50;99.90
14349;DHT22;7258;50.376;8.742;2022-10-16T06:11:00;14.50;99.90
14349;DHT22;7258;50.376;8.742;2022-10-16T06:13:03;14.50;99.90
14349;DHT22;7258;50.376;8.742;2022-10-16T06:15:06;14.50;99.90
14349;DHT22;7258;50.376;8.742;2022-10-16T06:17:09;14.50;99.90
14349;DHT22;7258;50.376;8.742;2022-10-16T06:19:12;14.50;99.90
14349;DHT22;7258;50.376;8.742;2022-10-16T06:21:18;14.50;99.90
14349;DHT22;7258;50.376;8.742;2022-10-16T06:23:22;14.50;99.90
14349;DHT22;7258;50.376;8.742;2022-10-16T06:25:26;14.50;99.90
14349;DHT22;7258;50.376;8.742;2022-10-16T06:27:30;14.50;99.90
14349;DHT22;7258;50.376;8.742;2022-10-16T06:29:33;14.50;99.90
14349;DHT22;7258;50.376;8.742;2022-10-16T06:31:36;14.50;99.90
14349;DHT22;7258;50.376;8.742;2022-10-16T06:33:39;14.50;99.90
14349;DHT22;7258;50.376;8.742;2022-10-16T06:35:43;14.50;99.90
14349;DHT22;7258;50.376;8.742;2022-10-16T06:37:45;14.60;99.90
14349;DHT22;7258;50.376;8.742;2022-10-16T06:39:48;14.60;99.90
14349;DHT22;7258;50.376;8.742;2022-10-16T06:41:52;14.60;99.90
14349;DHT22;7258;50.376;8.742;2022-10-16T06:43:55;14.60;99.90
14349;DHT22;7258;50.376;8.742;2022-10-16T06:45:59;14.60;99.90
14349;DHT22;7258;50.376;8.742;2022-10-16T06:48:03;14.60;99.90
14349;DHT22;7258;50.376;8.742;2022-10-16T06:50:06;14.60;99.90
14349;DHT22;7258;50.376;8.742;2022-10-16T06:52:09;14.60;99.90
14349;DHT22;7258;50.376;8.742;2022-10-16T06:54:14;14.60;99.90
14349;DHT22;7258;50.376;8.742;2022-10-16T06:56:19;14.60;99.90
14349;DHT22;7258;50.376;8.742;2022-10-16T06:58:23;14.60;99.90
14349;DHT22;7258;50.376;8.742;2022-10-16T07:00:26;14.60;99.90
14349;DHT22;7258;50.376;8.742;2022-10-16T07:02:29;14.70;99.90
14349;DHT22;7258;50.376;8.742;2022-10-16T07:04:32;14.70;99.90
14349;DHT22;7258;50.376;8.742;2022-10-16T07:06:35;14.70;99.90
14349;DHT22;7258;50.376;8.742;2022-10-16T07:08:39;14.70;99.90
14349;DHT22;7258;50.376;8.742;2022-10-16T07:10:42;14.70;99.90
14349;DHT22;7258;50.376;8.742;2022-10-16T07:12:45;14.70;99.90
14349;DHT22;7258;50.376;8.742;2022-10-16T07:14:50;14.80;99.90
14349;DHT22;7258;50.376;8.742;2022-10-16T07:16:53;14.80;99.90
14349;DHT22;7258;50.376;8.742;2022-10-16T07:18:57;14.80;99.90
14349;DHT22;7258;50.376;8.742;2022-10-16T07:21:05;14.80;99.90
14349;DHT22;7258;50.376;8.742;2022-10-16T07:23:08;14.80;99.90
14349;DHT22;7258;50.376;8.742;2022-10-16T07:25:11;14.80;99.90
14349;DHT22;7258;50.376;8.742;2022-10-16T07:27:14;14.80;99.90
14349;DHT22;7258;50.376;8.742;2022-10-16T07:29:19;14.80;99.90
14349;DHT22;7258;50.376;8.742;2022-10-16T07:31:24;14.80;99.90
14349;DHT22;7258;50.376;8.742;2022-10-16T07:33:27;14.80;99.90
14349;DHT22;7258;50.376;8.742;2022-10-16T07:35:30;14.80;99.90
14349;DHT22;7258;50.376;8.742;2022-10-16T07:37:33;14.90;99.90
14349;DHT22;7258;50.376;8.742;2022-10-16T07:39:36;14.90;99.90
14349;DHT22;7258;50.376;8.742;2022-10-16T07:41:38;14.90;99.90
14349;DHT22;7258;50.376;8.742;2022-10-16T07:43:45;14.90;99.90
14349;DHT22;7258;50.376;8.742;2022-10-16T07:45:50;15.00;99.90
14349;DHT22;7258;50.376;8.742;2022-10-16T07:47:59;15.00;99.90
14349;DHT22;7258;50.376;8.742;2022-10-16T07:50:02;15.00;99.90
14349;DHT22;7258;50.376;8.742;2022-10-16T07:52:05;15.00;99.90
14349;DHT22;7258;50.376;8.742;2022-10-16T07:54:09;15.00;99.90
14349;DHT22;7258;50.376;8.742;2022-10-16T07:56:12;15.00;99.90
14349;DHT22;7258;50.376;8.742;2022-10-16T07:58:15;15.00;99.90
14349;DHT22;7258;50.376;8.742;2022-10-16T08:00:18;15.00;99.90
14349;DHT22;7258;50.376;8.742;2022-10-16T08:02:21;15.00;99.90
14349;DHT22;7258;50.376;8.742;2022-10-16T08:04:25;15.00;99.90
14349;DHT22;7258;50.376;8.742;2022-10-16T08:06:29;15.00;99.90
14349;DHT22;7258;50.376;8.742;2022-10-16T08:08:31;15.00;99.90
14349;DHT22;7258;50.376;8.742;2022-10-16T08:10:35;15.00;99.90
14349;DHT22;7258;50.376;8.742;2022-10-16T08:12:38;15.00;99.90
14349;DHT22;7258;50.376;8.742;2022-10-16T08:14:41;15.00;99.90
14349;DHT22;7258;50.376;8.742;2022-10-16T08:16:48;15.00;99.90
14349;DHT22;7258;50.376;8.742;2022-10-16T08:18:50;15.10;99.90
14349;DHT22;7258;50.376;8.742;2022-10-16T08:20:58;15.10;99.90
14349;DHT22;7258;50.376;8.742;2022-10-16T08:23:02;15.10;99.90
14349;DHT22;7258;50.376;8.742;2022-10-16T08:25:05;15.10;99.90
14349;DHT22;7258;50.376;8.742;2022-10-16T08:27:08;15.10;99.90
14349;DHT22;7258;50.376;8.742;2022-10-16T08:29:13;15.10;99.90
14349;DHT22;7258;50.376;8.742;2022-10-16T08:31:16;15.10;99.90
14349;DHT22;7258;50.376;8.742;2022-10-16T08:33:19;15.20;99.90
14349;DHT22;7258;50.376;8.742;2022-10-16T08:35:22;15.30;99.90
14349;DHT22;7258;50.376;8.742;2022-10-16T08:37:29;15.40;99.90
14349;DHT22;7258;50.376;8.742;2022-10-16T08:39:32;15.50;99.90
14349;DHT22;7258;50.376;8.742;2022-10-16T08:41:59;15.50;99.90
14349;DHT22;7258;50.376;8.742;2022-10-16T08:44:22;15.60;99.90
14349;DHT22;7258;50.376;8.742;2022-10-16T08:46:35;15.60;99.90
14349;DHT22;7258;50.376;8.742;2022-10-16T08:48:44;15.50;99.90
14349;DHT22;7258;50.376;8.742;2022-10-16T08:50:50;15.60;99.90
14349;DHT22;7258;50.376;8.742;2022-10-16T08:52:55;15.60;99.90
14349;DHT22;7258;50.376;8.742;2022-10-16T08:54:59;15.60;99.90
14349;DHT22;7258;50.376;8.742;2022-10-16T08:57:09;15.70;99.90
14349;DHT22;7258;50.376;8.742;2022-10-16T08:59:14;15.80;99.90
14349;DHT22;7258;50.376;8.742;2022-10-16T09:01:20;15.90;99.90
14349;DHT22;7258;50.376;8.742;2022-10-16T09:03:33;15.90;99.90
14349;DHT22;7258;50.376;8.742;2022-10-16T09:05:55;16.00;99.90
14349;DHT22;7258;50.376;8.742;2022-10-16T09:08:08;16.00;99.90
14349;DHT22;7258;50.376;8.742;2022-10-16T09:10:23;16.20;99.90
14349;DHT22;7258;50.376;8.742;2022-10-16T09:12:33;16.30;99.90
14349;DHT22;7258;50.376;8.742;2022-10-16T09:14:58;16.50;99.90
14349;DHT22;7258;50.376;8.742;2022-10-16T09:17:12;16.70;99.90
14349;DHT22;7258;50.376;8.742;2022-10-16T09:19:21;16.70;99.90
14349;DHT22;7258;50.376;8.742;2022-10-16T09:21:29;16.80;99.90
14349;DHT22;7258;50.376;8.742;2022-10-16T09:23:35;16.80;99.90
14349;DHT22;7258;50.376;8.742;2022-10-16T09:25:39;16.80;99.90
14349;DHT22;7258;50.376;8.742;2022-10-16T09:27:47;16.70;99.90
14349;DHT22;7258;50.376;8.742;2022-10-16T09:29:50;16.70;99.90
14349;DHT22;7258;50.376;8.742;2022-10-16T09:32:09;16.70;99.90
14349;DHT22;7258;50.376;8.742;2022-10-16T09:34:20;16.70;99.90
14349;DHT22;7258;50.376;8.742;2022-10-16T09:36:28;16.70;99.90
14349;DHT22;7258;50.376;8.742;2022-10-16T09:38:34;16.80;99.90
14349;DHT22;7258;50.376;8.742;2022-10-16T09:40:38;16.90;99.90
14349;DHT22;7258;50.376;8.742;2022-10-16T09:42:44;16.90;99.90
14349;DHT22;7258;50.376;8.742;2022-10-16T09:44:48;16.90;99.90
14349;DHT22;7258;50.376;8.742;2022-10-16T09:47:01;16.90;99.90
14349;DHT22;7258;50.376;8.742;2022-10-16T09:49:16;16.90;99.90
14349;DHT22;7258;50.376;8.742;2022-10-16T09:51:23;17.00;99.90
14349;DHT22;7258;50.376;8.742;2022-10-16T09:53:39;16.90;99.90
14349;DHT22;7258;50.376;8.742;2022-10-16T09:55:49;17.00;99.90
14349;DHT22;7258;50.376;8.742;2022-10-16T09:57:53;17.00;99.90
14349;DHT22;7258;50.376;8.742;2022-10-16T09:59:57;17.10;99.90
14349;DHT22;7258;50.376;8.742;2022-10-16T10:02:03;17.10;99.90
14349;DHT22;7258;50.376;8.742;2022-10-16T10:04:06;17.30;99.90
14349;DHT22;7258;50.376;8.742;2022-10-16T10:06:18;17.30;99.90
14349;DHT22;7258;50.376;8.742;2022-10-16T10:08:23;17.30;99.90
14349;DHT22;7258;50.376;8.742;2022-10-16T10:10:29;17.20;99.90
14349;DHT22;7258;50.376;8.742;2022-10-16T10:12:33;17.10;99.90
14349;DHT22;7258;50.376;8.742;2022-10-16T10:14:42;17.10;99.90
14349;DHT22;7258;50.376;8.742;2022-10-16T10:16:47;17.10;99.90
14349;DHT22;7258;50.376;8.742;2022-10-16T10:18:58;17.10;99.90
14349;DHT22;7258;50.376;8.742;2022-10-16T10:21:02;17.10;99.90
14349;DHT22;7258;50.376;8.742;2022-10-16T10:23:21;17.20;99.90
14349;DHT22;7258;50.376;8.742;2022-10-16T10:25:39;17.30;99.90
14349;DHT22;7258;50.376;8.742;2022-10-16T10:28:07;17.40;99.90
14349;DHT22;7258;50.376;8.742;2022-10-16T10:30:18;17.40;99.90
14349;DHT22;7258;50.376;8.742;2022-10-16T10:32:31;17.50;99.90
14349;DHT22;7258;50.376;8.742;2022-10-16T10:34:51;17.50;99.90
14349;DHT22;7258;50.376;8.742;2022-10-16T10:37:01;17.50;99.90
14349;DHT22;7258;50.376;8.742;2022-10-16T10:39:11;17.40;99.90
14349;DHT22;7258;50.376;8.742;2022-10-16T10:43:57;17.30;99.90
14349;DHT22;7258;50.376;8.742;2022-10-16T10:46:04;17.30;99.90
14349;DHT22;7258;50.376;8.742;2022-10-16T10:48:20;17.30;99.90
14349;DHT22;7258;50.376;8.742;2022-10-16T10:50:29;17.30;99.90
14349;DHT22;7258;50.376;8.742;2022-10-16T10:52:41;17.40;99.90
14349;DHT22;7258;50.376;8.742;2022-10-16T10:54:51;17.50;99.90
14349;DHT22;7258;50.376;8.742;2022-10-16T10:57:00;17.70;99.90
14349;DHT22;7258;50.376;8.742;2022-10-16T11:01:42;17.80;99.90
14349;DHT22;7258;50.376;8.742;2022-10-16T11:04:14;17.90;99.90
14349;DHT22;7258;50.376;8.742;2022-10-16T11:06:24;18.10;99.90
14349;DHT22;7258;50.376;8.742;2022-10-16T11:08:32;18.20;99.90
14349;DHT22;7258;50.376;8.742;2022-10-16T11:10:42;18.20;99.90
14349;DHT22;7258;50.376;8.742;2022-10-16T11:12:49;18.30;99.90
14349;DHT22;7258;50.376;8.742;2022-10-16T11:15:00;18.30;99.90
14349;DHT22;7258;50.376;8.742;2022-10-16T11:17:08;18.30;99.90
14349;DHT22;7258;50.376;8.742;2022-10-16T11:19:14;18.40;99.90
14349;DHT22;7258;50.376;8.742;2022-10-16T11:21:23;18.40;99.90
14349;DHT22;7258;50.376;8.742;2022-10-16T11:23:35;18.40;99.90
14349;DHT22;7258;50.376;8.742;2022-10-16T11:25:40;18.50;99.90
14349;DHT22;7258;50.376;8.742;2022-10-16T11:27:51;18.50;99.90
14349;DHT22;7258;50.376;8.742;2022-10-16T11:29:59;18.60;99.90
14349;DHT22;7258;50.376;8.742;2022-10-16T11:32:14;18.70;99.90
14349;DHT22;7258;50.376;8.742;2022-10-16T11:34:24;18.80;99.90
14349;DHT22;7258;50.376;8.742;2022-10-16T11:36:33;19.00;99.90
14349;DHT22;7258;50.376;8.742;2022-10-16T11:38:41;19.20;99.90
14349;DHT22;7258;50.376;8.742;2022-10-16T11:40:47;19.40;99.90
14349;DHT22;7258;50.376;8.742;2022-10-16T11:42:54;19.60;99.90
14349;DHT22;7258;50.376;8.742;2022-10-16T11:45:07;19.80;99.90
14349;DHT22;7258;50.376;8.742;2022-10-16T11:47:26;20.10;99.90
14349;DHT22;7258;50.376;8.742;2022-10-16T11:49:51;20.20;99.90
14349;DHT22;7258;50.376;8.742;2022-10-16T11:52:01;20.30;99.90
14349;DHT22;7258;50.376;8.742;2022-10-16T11:54:17;20.20;99.90
14349;DHT22;7258;50.376;8.742;2022-10-16T11:56:24;20.10;99.90
14349;DHT22;7258;50.376;8.742;2022-10-16T11:58:29;19.90;99.90
14349;DHT22;7258;50.376;8.742;2022-10-16T12:00:41;19.90;99.90
14349;DHT22;7258;50.376;8.742;2022-10-16T12:02:54;19.70;99.90
14349;DHT22;7258;50.376;8.742;2022-10-16T12:05:06;19.60;99.90
14349;DHT22;7258;50.376;8.742;2022-10-16T12:07:18;19.50;99.90
14349;DHT22;7258;50.376;8.742;2022-10-16T12:09:24;19.40;99.90
14349;DHT22;7258;50.376;8.742;2022-10-16T12:11:34;19.30;99.90
14349;DHT22;7258;50.376;8.742;2022-10-16T12:13:39;19.30;99.90
14349;DHT22;7258;50.376;8.742;2022-10-16T12:15:44;19.30;99.90
14349;DHT22;7258;50.376;8.742;2022-10-16T12:18:00;19.30;99.90
14349;DHT22;7258;50.376;8.742;2022-10-16T12:20:23;19.30;99.90
14349;DHT22;7258;50.376;8.742;2022-10-16T12:22:29;19.30;99.90
14349;DHT22;7258;50.376;8.742;2022-10-16T12:24:35;19.30;99.90
14349;DHT22;7258;50.376;8.742;2022-10-16T12:26:39;19.40;99.90
14349;DHT22;7258;50.376;8.742;2022-10-16T12:28:43;19.40;99.90
14349;DHT22;7258;50.376;8.742;2022-10-16T12:30:55;19.50;99.90
14349;DHT22;7258;50.376;8.742;2022-10-16T12:33:01;19.50;99.90
14349;DHT22;7258;50.376;8.742;2022-10-16T12:35:06;19.50;99.90
14349;DHT22;7258;50.376;8.742;2022-10-16T12:37:21;19.50;99.90
14349;DHT22;7258;50.376;8.742;2022-10-16T12:39:27;19.40;99.90
14349;DHT22;7258;50.376;8.742;2022-10-16T12:41:32;19.40;99.90
14349;DHT22;7258;50.376;8.742;2022-10-16T12:43:39;19.30;99.90
14349;DHT22;7258;50.376;8.742;2022-10-16T12:45:43;19.30;99.90
14349;DHT22;7258;50.376;8.742;2022-10-16T12:47:50;19.30;99.90
14349;DHT22;7258;50.376;8.742;2022-10-16T12:49:55;19.30;99.90
14349;DHT22;7258;50.376;8.742;2022-10-16T12:51:58;19.30;99.90
14349;DHT22;7258;50.376;8.742;2022-10-16T12:54:02;19.30;99.90
14349;DHT22;7258;50.376;8.742;2022-10-16T12:56:15;19.20;99.90
14349;DHT22;7258;50.376;8.742;2022-10-16T12:58:37;19.30;99.90
14349;DHT22;7258;50.376;8.742;2022-10-16T13:00:45;19.40;99.90
14349;DHT22;7258;50.376;8.742;2022-10-16T13:03:02;19.40;99.90
14349;DHT22;7258;50.376;8.742;2022-10-16T13:05:34;19.50;99.90
14349;DHT22;7258;50.376;8.742;2022-10-16T13:07:51;19.70;99.90
14349;DHT22;7258;50.376;8.742;2022-10-16T13:10:05;19.80;99.90
14349;DHT22;7258;50.376;8.742;2022-10-16T13:12:19;19.80;99.90
14349;DHT22;7258;50.376;8.742;2022-10-16T13:14:44;19.90;99.90
14349;DHT22;7258;50.376;8.742;2022-10-16T13:16:57;20.00;99.90
14349;DHT22;7258;50.376;8.742;2022-10-16T13:19:16;20.10;99.90
14349;DHT22;7258;50.376;8.742;2022-10-16T13:21:29;20.10;99.90
14349;DHT22;7258;50.376;8.742;2022-10-16T13:23:38;19.90;99.90
14349;DHT22;7258;50.376;8.742;2022-10-16T13:25:54;19.70;99.90
14349;DHT22;7258;50.376;8.742;2022-10-16T13:28:02;19.60;99.90
14349;DHT22;7258;50.376;8.742;2022-10-16T13:30:12;19.50;99.90
14349;DHT22;7258;50.376;8.742;2022-10-16T13:32:16;19.60;99.90
14349;DHT22;7258;50.376;8.742;2022-10-16T13:34:22;19.70;99.90
14349;DHT22;7258;50.376;8.742;2022-10-16T13:36:26;19.80;99.90